createdAt,value
2023-06-09T00:00:51.700Z,16.15
2023-06-09T00:03:22.690Z,16.12
2023-06-09T00:05:49.990Z,16.10
2023-06-09T00:08:17.070Z,16.07
2023-06-09T00:10:43.848Z,16.04
2023-06-09T00:13:11.307Z,16.05
2023-06-09T00:15:40.352Z,16.01
2023-06-09T00:18:07.201Z,15.99
2023-06-09T00:20:36.234Z,15.98
2023-06-09T00:23:03.271Z,15.89
2023-06-09T00:25:30.382Z,15.89
2023-06-09T00:27:57.158Z,15.87
2023-06-09T00:30:38.042Z,15.86
2023-06-09T00:33:06.238Z,15.71
2023-06-09T00:35:35.655Z,15.83
2023-06-09T00:38:02.453Z,15.82
2023-06-09T00:40:31.847Z,15.79
2023-06-09T00:42:58.516Z,15.71
2023-06-09T00:45:27.936Z,15.76
2023-06-09T00:47:56.066Z,15.74
2023-06-09T00:50:22.839Z,15.71
2023-06-09T00:52:55.788Z,15.66
2023-06-09T00:55:26.030Z,15.68
2023-06-09T00:57:56.975Z,15.65
2023-06-09T01:00:28.446Z,15.63
2023-06-09T01:03:02.388Z,15.63
2023-06-09T01:05:37.868Z,15.61
2023-06-09T01:08:58.004Z,15.59
2023-06-09T01:11:32.753Z,15.54
2023-06-09T01:14:14.627Z,15.56
2023-06-09T01:17:03.134Z,15.55
2023-06-09T01:19:52.911Z,15.52
2023-06-09T01:22:37.677Z,15.48
2023-06-09T01:25:28.863Z,15.51
2023-06-09T01:27:58.846Z,15.49
2023-06-09T01:30:31.653Z,15.48
2023-06-09T01:33:00.519Z,15.27
2023-06-09T01:35:29.648Z,15.46
2023-06-09T01:37:57.817Z,15.46
2023-06-09T01:40:25.088Z,15.46
2023-06-09T01:42:51.792Z,15.40
2023-06-09T01:45:21.080Z,15.46
2023-06-09T01:47:47.956Z,15.43
2023-06-09T01:50:25.157Z,15.46
2023-06-09T01:52:58.722Z,15.43
2023-06-09T01:55:48.132Z,15.24
2023-06-09T01:58:20.797Z,15.41
2023-06-09T02:00:49.071Z,15.38
2023-06-09T02:03:21.323Z,15.19
2023-06-09T02:05:50.440Z,15.33
2023-06-09T02:08:17.117Z,15.31
2023-06-09T02:10:43.901Z,15.28
2023-06-09T02:13:20.430Z,15.27
2023-06-09T02:15:50.715Z,15.23
2023-06-09T02:18:22.326Z,15.20
2023-06-09T02:20:50.043Z,15.16
2023-06-09T02:23:19.951Z,15.17
2023-06-09T02:25:46.855Z,15.04
2023-06-09T02:28:17.685Z,15.12
2023-06-09T02:30:49.563Z,15.04
2023-06-09T02:33:16.332Z,15.02
2023-06-09T02:35:43.554Z,15.01
2023-06-09T02:38:10.364Z,14.96
2023-06-09T02:40:43.566Z,14.92
2023-06-09T02:43:10.320Z,14.59
2023-06-09T02:45:37.423Z,14.92
2023-06-09T02:48:04.331Z,14.81
2023-06-09T02:50:31.243Z,14.85
2023-06-09T02:52:58.071Z,14.78
2023-06-09T02:55:24.849Z,14.83
2023-06-09T02:57:51.714Z,14.83
2023-06-09T03:00:18.777Z,14.84
2023-06-09T03:02:47.579Z,14.81
2023-06-09T03:05:14.544Z,14.82
2023-06-09T03:07:41.311Z,14.66
2023-06-09T03:10:08.864Z,14.78
2023-06-09T03:12:40.527Z,14.75
2023-06-09T03:15:09.114Z,14.77
2023-06-09T03:17:42.964Z,14.73
2023-06-09T03:20:10.792Z,14.70
2023-06-09T03:22:38.117Z,14.70
2023-06-09T03:25:05.402Z,14.67
2023-06-09T03:27:32.106Z,14.58
2023-06-09T03:29:58.866Z,14.60
2023-06-09T03:32:25.537Z,14.55
2023-06-09T03:34:54.217Z,14.56
2023-06-09T03:37:20.958Z,14.36
2023-06-09T03:39:47.592Z,14.48
2023-06-09T03:42:14.508Z,14.50
2023-06-09T03:44:41.265Z,14.48
2023-06-09T03:47:10.636Z,14.32
2023-06-09T03:49:37.599Z,14.44
2023-06-09T03:52:07.536Z,14.42
2023-06-09T03:54:35.620Z,14.42
2023-06-09T03:57:02.499Z,14.39
2023-06-09T03:59:31.481Z,14.08
2023-06-09T04:02:00.671Z,14.33
2023-06-09T04:04:27.413Z,13.99
2023-06-09T04:06:54.173Z,14.16
2023-06-09T04:09:20.934Z,14.25
2023-06-09T04:11:47.715Z,14.23
2023-06-09T04:14:14.484Z,14.23
2023-06-09T04:16:41.165Z,14.23
2023-06-09T04:19:08.035Z,14.23
2023-06-09T04:21:34.712Z,14.10
2023-06-09T04:24:03.712Z,14.25
2023-06-09T04:26:39.747Z,14.23
2023-06-09T04:29:11.343Z,14.28
2023-06-09T04:31:39.322Z,14.30
2023-06-09T04:34:11.581Z,14.30
2023-06-09T04:36:40.101Z,14.32
2023-06-09T04:39:08.373Z,14.31
2023-06-09T04:41:35.601Z,14.29
2023-06-09T04:44:07.099Z,14.21
2023-06-09T04:46:40.458Z,14.36
2023-06-09T04:49:10.416Z,14.39
2023-06-09T04:51:49.778Z,14.44
2023-06-09T04:54:30.313Z,14.51
2023-06-09T04:56:59.351Z,14.55
2023-06-09T04:59:29.963Z,14.61
2023-06-09T05:01:59.538Z,14.68
2023-06-09T05:04:27.583Z,14.77
2023-06-09T05:06:54.305Z,14.77
2023-06-09T05:09:23.774Z,14.87
2023-06-09T05:11:55.145Z,14.94
2023-06-09T05:14:22.029Z,15.01
2023-06-09T05:16:54.997Z,15.11
2023-06-09T05:19:22.351Z,15.08
2023-06-09T05:21:51.703Z,15.27
2023-06-09T05:24:18.533Z,15.31
2023-06-09T05:26:46.633Z,15.38
2023-06-09T05:29:16.118Z,15.43
2023-06-09T05:31:45.272Z,15.59
2023-06-09T05:34:14.596Z,15.66
2023-06-09T05:36:41.660Z,15.74
2023-06-09T05:39:09.684Z,15.82
2023-06-09T05:41:36.435Z,15.84
2023-06-09T05:44:03.168Z,15.96
2023-06-09T05:46:29.948Z,16.08
2023-06-09T05:48:56.694Z,16.22
2023-06-09T05:51:27.103Z,16.49
2023-06-09T05:53:54.941Z,17.04
2023-06-09T05:56:23.366Z,17.62
2023-06-09T05:58:52.790Z,18.21
2023-06-09T06:01:21.462Z,18.79
2023-06-09T06:03:48.406Z,19.32
2023-06-09T06:06:15.247Z,19.78
2023-06-09T06:08:45.006Z,20.29
2023-06-09T06:11:14.488Z,20.80
2023-06-09T06:13:41.190Z,21.31
2023-06-09T06:16:10.429Z,21.83
2023-06-09T06:18:37.720Z,22.23
2023-06-09T06:21:07.145Z,22.55
2023-06-09T06:23:33.912Z,23.03
2023-06-09T06:26:00.701Z,23.42
2023-06-09T06:28:28.180Z,23.65
2023-06-09T06:30:57.356Z,23.46
2023-06-09T06:33:30.946Z,23.25
2023-06-09T06:35:57.699Z,22.87
2023-06-09T06:38:24.405Z,22.55
2023-06-09T06:40:51.403Z,22.11
2023-06-09T06:43:20.574Z,21.74
2023-06-09T06:45:47.241Z,21.66
2023-06-09T06:48:14.027Z,21.67
2023-06-09T06:50:43.261Z,21.70
2023-06-09T06:53:10.132Z,21.87
2023-06-09T06:55:38.241Z,22.01
2023-06-09T06:58:05.524Z,22.05
2023-06-09T07:00:32.311Z,22.03
2023-06-09T07:02:59.141Z,21.99
2023-06-09T07:05:26.432Z,21.86
2023-06-09T07:07:53.481Z,21.73
2023-06-09T07:10:22.422Z,21.43
2023-06-09T07:12:53.670Z,21.25
2023-06-09T07:15:20.714Z,20.93
2023-06-09T07:17:47.519Z,20.83
2023-06-09T07:20:14.226Z,20.69
2023-06-09T07:22:42.682Z,20.55
2023-06-09T07:25:10.457Z,20.45
2023-06-09T07:27:39.493Z,20.39
2023-06-09T07:30:09.914Z,20.32
2023-06-09T07:32:37.294Z,20.28
2023-06-09T07:35:04.311Z,20.26
2023-06-09T07:37:32.684Z,20.30
2023-06-09T07:40:13.831Z,20.35
2023-06-09T07:42:44.561Z,20.44
2023-06-09T07:45:14.063Z,20.62
2023-06-09T07:47:40.957Z,20.90
2023-06-09T07:50:09.054Z,21.38
2023-06-09T07:52:38.336Z,21.82
2023-06-09T07:55:13.953Z,22.25
2023-06-09T07:57:42.025Z,22.68
2023-06-09T08:00:12.559Z,23.16
2023-06-09T08:02:42.700Z,23.62
2023-06-09T08:05:12.193Z,24.07
2023-06-09T08:07:41.658Z,24.55
2023-06-09T08:10:08.853Z,24.79
2023-06-09T08:12:37.664Z,25.38
2023-06-09T08:15:04.811Z,26.01
2023-06-09T08:17:31.788Z,26.53
2023-06-09T08:19:58.508Z,26.92
2023-06-09T08:22:25.268Z,27.18
2023-06-09T08:24:52.081Z,27.44
2023-06-09T08:27:20.993Z,27.76
2023-06-09T08:29:48.148Z,28.18
2023-06-09T08:32:14.893Z,28.44
2023-06-09T08:34:43.859Z,28.54
2023-06-09T08:37:10.708Z,28.66
2023-06-09T08:39:39.192Z,28.75
2023-06-09T08:42:21.851Z,28.95
2023-06-09T08:44:51.176Z,29.10
2023-06-09T08:47:21.828Z,29.14
2023-06-09T08:49:50.517Z,29.28
2023-06-09T08:52:20.664Z,29.52
2023-06-09T08:54:50.214Z,29.68
2023-06-09T08:57:18.308Z,29.86
2023-06-09T08:59:48.384Z,29.95
2023-06-09T09:02:15.680Z,30.24
2023-06-09T09:04:44.748Z,30.45
2023-06-09T09:07:13.864Z,30.70
2023-06-09T09:09:43.796Z,30.82
2023-06-09T09:12:16.778Z,30.87
2023-06-09T09:14:49.072Z,30.84
2023-06-09T09:17:18.528Z,30.74
2023-06-09T09:19:47.094Z,30.89
2023-06-09T09:22:14.275Z,30.79
2023-06-09T09:24:50.633Z,30.85
2023-06-09T09:27:24.161Z,31.01
2023-06-09T09:29:51.147Z,30.96
2023-06-09T09:32:18.258Z,30.89
2023-06-09T09:34:46.418Z,30.79
2023-06-09T09:37:16.811Z,30.78
2023-06-09T09:39:57.059Z,30.82
2023-06-09T09:42:28.485Z,31.04
2023-06-09T09:44:55.305Z,31.18
2023-06-09T09:47:23.508Z,31.26
2023-06-09T09:49:52.555Z,31.17
2023-06-09T09:52:30.275Z,31.01
2023-06-09T09:55:00.666Z,30.83
2023-06-09T09:57:32.519Z,30.65
2023-06-09T10:00:01.984Z,30.36
2023-06-09T10:02:31.918Z,30.24
2023-06-09T10:05:04.653Z,30.06
2023-06-09T10:07:39.528Z,29.91
2023-06-09T10:10:10.431Z,29.99
2023-06-09T10:12:38.648Z,29.94
2023-06-09T10:15:12.105Z,29.71
2023-06-09T10:17:41.469Z,29.88
2023-06-09T10:20:10.607Z,29.69
2023-06-09T10:22:37.954Z,29.56
2023-06-09T10:25:05.802Z,29.35
2023-06-09T10:27:33.056Z,29.09
2023-06-09T10:30:02.599Z,28.90
2023-06-09T10:32:32.950Z,28.82
2023-06-09T10:35:02.764Z,28.54
2023-06-09T10:37:34.850Z,28.81
2023-06-09T10:40:19.999Z,28.67
2023-06-09T10:43:17.334Z,28.62
2023-06-09T10:45:59.037Z,28.49
2023-06-09T10:48:52.054Z,28.32
2023-06-09T10:51:27.968Z,28.31
2023-06-09T10:54:18.721Z,28.27
2023-06-09T10:56:53.663Z,28.18
2023-06-09T10:59:26.616Z,28.23
2023-06-09T11:02:02.739Z,28.30
2023-06-09T11:04:48.134Z,28.33
2023-06-09T11:07:14.936Z,28.15
2023-06-09T11:10:02.602Z,27.93
2023-06-09T11:12:48.000Z,27.76
2023-06-09T11:15:18.382Z,27.72
2023-06-09T11:17:47.636Z,27.84
2023-06-09T11:20:19.480Z,28.01
2023-06-09T11:22:49.337Z,28.11
2023-06-09T11:25:16.025Z,28.19
2023-06-09T11:27:44.272Z,28.26
2023-06-09T11:30:19.466Z,28.19
2023-06-09T11:35:42.161Z,28.09
2023-06-09T11:38:10.340Z,27.99
2023-06-09T11:40:51.748Z,27.91
2023-06-09T11:43:20.859Z,27.99
2023-06-09T11:45:48.508Z,27.94
2023-06-09T11:48:17.064Z,28.02
2023-06-09T11:50:46.256Z,28.05
2023-06-09T11:53:14.873Z,28.07
2023-06-09T11:55:42.207Z,28.06
2023-06-09T11:58:11.048Z,28.06
2023-06-09T12:00:40.284Z,27.96
2023-06-09T12:03:07.857Z,27.91
2023-06-09T12:05:35.717Z,27.81
2023-06-09T12:08:05.578Z,27.79
2023-06-09T12:10:32.400Z,27.75
2023-06-09T12:13:02.321Z,27.82
2023-06-09T12:15:32.040Z,27.77
2023-06-09T12:18:03.248Z,27.83
2023-06-09T12:20:31.337Z,27.78
2023-06-09T12:23:18.645Z,27.75
2023-06-09T12:25:50.221Z,27.69
2023-06-09T12:28:24.469Z,27.75
2023-06-09T12:30:56.153Z,27.79
2023-06-09T12:33:26.067Z,27.83
2023-06-09T12:35:55.457Z,27.86
2023-06-09T12:38:29.979Z,27.85
2023-06-09T12:40:57.563Z,27.87
2023-06-09T12:43:26.920Z,27.89
2023-06-09T12:46:02.712Z,27.87
2023-06-09T12:48:31.760Z,27.82
2023-06-09T12:50:59.475Z,27.79
2023-06-09T12:53:28.688Z,27.80
2023-06-09T12:55:55.411Z,27.75
2023-06-09T12:58:24.745Z,27.95
2023-06-09T13:00:51.552Z,27.97
2023-06-09T13:03:20.992Z,27.93
2023-06-09T13:05:47.791Z,27.81
2023-06-09T13:08:16.649Z,27.75
2023-06-09T13:10:43.365Z,27.66
2023-06-09T13:13:12.353Z,27.79
2023-06-09T13:15:41.455Z,27.78
2023-06-09T13:18:12.363Z,27.82
2023-06-09T13:20:39.055Z,27.85
2023-06-09T13:23:08.039Z,27.79
2023-06-09T13:25:35.652Z,27.74
2023-06-09T13:28:04.856Z,27.77
2023-06-09T13:30:31.580Z,27.73
2023-06-09T13:33:00.962Z,27.81
2023-06-09T13:35:27.901Z,27.79
2023-06-09T13:37:54.887Z,27.77
2023-06-09T13:40:21.861Z,27.74
2023-06-09T13:42:53.925Z,27.70
2023-06-09T13:45:26.248Z,27.66
2023-06-09T13:48:01.334Z,27.68
2023-06-09T13:50:28.865Z,27.78
2023-06-09T13:52:55.545Z,27.84
2023-06-09T13:55:22.359Z,27.86
2023-06-09T13:57:49.476Z,27.88
2023-06-09T14:00:17.444Z,27.82
2023-06-09T14:02:46.909Z,27.83
2023-06-09T14:05:14.772Z,27.74
2023-06-09T14:07:49.474Z,27.71
2023-06-09T14:10:16.936Z,27.60
2023-06-09T14:12:49.580Z,27.60
2023-06-09T14:15:28.559Z,27.61
2023-06-09T14:17:57.461Z,27.62
2023-06-09T14:20:28.203Z,27.65
2023-06-09T14:22:59.964Z,27.70
2023-06-09T14:25:29.735Z,27.71
2023-06-09T14:27:58.893Z,27.69
2023-06-09T14:30:29.893Z,27.65
2023-06-09T14:32:57.058Z,27.74
2023-06-09T14:35:28.064Z,27.77
2023-06-09T14:38:01.056Z,27.80
2023-06-09T14:40:36.833Z,27.80
2023-06-09T14:43:09.997Z,27.82
2023-06-09T14:45:36.746Z,27.73
2023-06-09T14:48:07.916Z,27.86
2023-06-09T14:50:41.859Z,27.84
2023-06-09T14:53:14.711Z,27.94
2023-06-09T14:55:50.169Z,27.98
2023-06-09T14:58:21.228Z,28.04
2023-06-09T15:00:48.318Z,28.04
2023-06-09T15:03:19.445Z,28.10
2023-06-09T15:05:46.592Z,28.05
2023-06-09T15:10:44.342Z,28.02
2023-06-09T15:13:17.456Z,28.08
2023-06-09T15:15:46.517Z,28.12
2023-06-09T15:18:15.985Z,28.17
2023-06-09T15:20:43.942Z,28.22
2023-06-09T15:23:16.723Z,28.21
2023-06-09T15:25:46.193Z,28.14
2023-06-09T15:28:17.252Z,28.18
2023-06-09T15:30:51.012Z,28.20
2023-06-09T15:33:20.220Z,28.14
2023-06-09T15:35:49.316Z,28.25
2023-06-09T15:38:17.262Z,28.22
2023-06-09T15:40:49.648Z,28.23
2023-06-09T15:43:18.736Z,28.31
2023-06-09T15:45:52.609Z,28.33
2023-06-09T15:48:22.769Z,28.34
2023-06-09T15:50:53.061Z,28.30
2023-06-09T15:53:21.773Z,28.37
2023-06-09T15:55:51.299Z,28.37
2023-06-09T15:58:18.369Z,28.34
2023-06-09T16:00:46.478Z,28.33
2023-06-09T16:03:15.843Z,28.27
2023-06-09T16:05:43.519Z,28.22
2023-06-09T16:08:14.735Z,28.22
2023-06-09T16:10:44.571Z,28.23
2023-06-09T16:13:11.341Z,28.10
2023-06-09T16:15:39.657Z,28.24
2023-06-09T16:18:13.809Z,28.26
2023-06-09T16:20:43.618Z,28.16
2023-06-09T16:23:16.332Z,28.25
2023-06-09T16:25:43.573Z,28.23
2023-06-09T16:28:12.773Z,28.20
2023-06-09T16:30:40.067Z,28.04
2023-06-09T16:33:10.772Z,28.13
2023-06-09T16:35:38.547Z,28.03
2023-06-09T16:38:05.658Z,28.07
2023-06-09T16:40:37.485Z,28.06
2023-06-09T16:43:04.267Z,28.05
2023-06-09T16:45:31.000Z,27.99
2023-06-09T16:47:58.574Z,28.00
2023-06-09T16:50:30.203Z,27.99
2023-06-09T16:53:00.185Z,28.00
2023-06-09T16:55:29.567Z,27.98
2023-06-09T16:57:56.337Z,27.96
2023-06-09T17:00:25.693Z,27.92
2023-06-09T17:02:55.826Z,27.88
2023-06-09T17:05:23.232Z,27.82
2023-06-09T17:07:49.975Z,27.66
2023-06-09T17:10:18.988Z,27.60
2023-06-09T17:12:45.852Z,27.60
2023-06-09T17:15:12.603Z,27.57
2023-06-09T17:17:39.457Z,27.50
2023-06-09T17:20:06.798Z,27.47
2023-06-09T17:22:33.650Z,27.44
2023-06-09T17:25:00.976Z,27.41
2023-06-09T17:27:30.179Z,27.38
2023-06-09T17:30:03.392Z,27.34
2023-06-09T17:32:44.935Z,27.35
2023-06-09T17:35:13.218Z,27.34
2023-06-09T17:37:41.293Z,27.32
2023-06-09T17:40:11.988Z,27.28
2023-06-09T17:42:42.047Z,27.16
2023-06-09T17:45:10.864Z,27.16
2023-06-09T17:47:38.217Z,27.19
2023-06-09T17:50:09.156Z,27.20
2023-06-09T17:52:36.716Z,27.15
2023-06-09T17:55:07.403Z,27.11
2023-06-09T17:57:34.606Z,27.05
2023-06-09T18:00:06.672Z,27.07
2023-06-09T18:02:36.198Z,27.04
2023-06-09T18:05:04.123Z,26.86
2023-06-09T18:07:30.780Z,26.91
2023-06-09T18:09:57.597Z,26.87
2023-06-09T18:12:24.316Z,26.65
2023-06-09T18:14:51.460Z,26.74
2023-06-09T18:17:18.517Z,26.66
2023-06-09T18:19:45.287Z,26.62
2023-06-09T18:22:12.343Z,26.59
2023-06-09T18:24:43.680Z,26.51
2023-06-09T18:27:11.643Z,26.43
2023-06-09T18:29:38.388Z,26.41
2023-06-09T18:32:05.894Z,26.35
2023-06-09T18:34:34.730Z,26.29
2023-06-09T18:37:04.402Z,26.03
2023-06-09T18:39:31.056Z,26.10
2023-06-09T18:41:57.926Z,26.02
2023-06-09T18:44:27.371Z,25.94
2023-06-09T18:46:56.874Z,25.78
2023-06-09T18:49:26.274Z,25.82
2023-06-09T18:51:55.432Z,25.75
2023-06-09T18:54:22.109Z,25.64
2023-06-09T18:56:48.839Z,25.56
2023-06-09T18:59:16.359Z,25.42
2023-06-09T19:01:43.168Z,25.35
2023-06-09T19:04:09.999Z,25.24
2023-06-09T19:06:37.178Z,25.21
2023-06-09T19:09:11.682Z,24.98
2023-06-09T19:11:43.380Z,25.03
2023-06-09T19:14:10.394Z,24.93
2023-06-09T19:16:38.047Z,24.80
2023-06-09T19:19:08.480Z,24.68
2023-06-09T19:21:35.972Z,24.66
2023-06-09T19:24:03.067Z,24.55
2023-06-09T19:26:31.048Z,24.46
2023-06-09T19:28:59.944Z,24.35
2023-06-09T19:31:29.120Z,24.28
2023-06-09T19:33:57.930Z,24.22
2023-06-09T19:36:27.272Z,24.02
2023-06-09T19:38:54.080Z,24.02
2023-06-09T19:41:21.306Z,23.93
2023-06-09T19:43:47.986Z,23.82
2023-06-09T19:46:14.719Z,23.73
2023-06-09T19:48:41.806Z,23.63
2023-06-09T19:51:08.579Z,23.53
2023-06-09T19:53:37.696Z,23.48
2023-06-09T19:56:04.632Z,23.36
2023-06-09T19:58:33.560Z,23.29
2023-06-09T20:01:02.604Z,23.15
2023-06-09T20:03:32.010Z,23.18
2023-06-09T20:05:58.743Z,23.11
2023-06-09T20:08:25.490Z,23.04
2023-06-09T20:10:52.469Z,22.81
2023-06-09T20:13:19.219Z,22.92
2023-06-09T20:15:46.324Z,22.77
2023-06-09T20:18:16.283Z,22.76
2023-06-09T20:20:43.749Z,22.70
2023-06-09T20:23:11.604Z,22.64
2023-06-09T20:25:41.194Z,22.58
2023-06-09T20:28:07.893Z,22.50
2023-06-09T20:30:34.557Z,22.45
2023-06-09T20:33:01.224Z,22.38
2023-06-09T20:35:28.031Z,22.33
2023-06-09T20:37:54.782Z,22.27
2023-06-09T20:40:21.593Z,22.22
2023-06-09T20:42:48.296Z,21.91
2023-06-09T20:45:17.394Z,22.09
2023-06-09T20:47:46.716Z,21.94
2023-06-09T20:50:13.422Z,21.91
2023-06-09T20:52:40.085Z,21.91
2023-06-09T20:55:07.720Z,21.81
2023-06-09T20:57:39.374Z,21.81
2023-06-09T21:00:07.262Z,21.78
2023-06-09T21:02:34.092Z,21.66
2023-06-09T21:05:00.868Z,21.71
2023-06-09T21:07:27.707Z,21.66
2023-06-09T21:09:56.506Z,21.62
2023-06-09T21:12:25.968Z,21.59
2023-06-09T21:14:54.829Z,21.48
2023-06-09T21:17:21.569Z,21.48
2023-06-09T21:19:48.542Z,21.44
2023-06-09T21:22:15.531Z,21.42
2023-06-09T21:24:45.548Z,21.36
2023-06-09T21:27:12.286Z,21.29
2023-06-09T21:29:38.958Z,21.20
2023-06-09T21:32:08.343Z,21.25
2023-06-09T21:34:35.042Z,21.17
2023-06-09T21:37:01.679Z,21.17
2023-06-09T21:39:30.705Z,21.11
2023-06-09T21:41:57.331Z,21.10
2023-06-09T21:44:24.051Z,21.08
2023-06-09T21:46:50.773Z,21.06
2023-06-09T21:49:17.543Z,21.04
2023-06-09T21:51:48.592Z,20.99
2023-06-09T21:54:17.484Z,20.98
2023-06-09T21:56:44.384Z,20.96
2023-06-09T21:59:11.091Z,20.93
2023-06-09T22:01:37.922Z,20.93
2023-06-09T22:04:05.033Z,20.94
2023-06-09T22:06:31.711Z,20.91
2023-06-09T22:08:58.590Z,20.89
2023-06-09T22:11:25.234Z,20.88
2023-06-09T22:13:51.936Z,20.85
2023-06-09T22:16:18.603Z,20.77
2023-06-09T22:18:45.972Z,20.79
2023-06-09T22:21:13.753Z,20.77
2023-06-09T22:23:40.980Z,20.65
2023-06-09T22:26:09.978Z,20.60
2023-06-09T22:28:37.226Z,20.65
2023-06-09T22:31:07.410Z,20.62
2023-06-09T22:33:34.208Z,20.67
2023-06-09T22:36:05.206Z,20.55
2023-06-09T22:38:34.490Z,20.61
2023-06-09T22:41:02.136Z,20.41
2023-06-09T22:43:31.078Z,20.48
2023-06-09T22:45:57.762Z,20.58
2023-06-09T22:48:26.778Z,20.57
2023-06-09T22:50:58.326Z,20.57
2023-06-09T22:53:28.691Z,20.44
2023-06-09T22:55:55.478Z,20.52
2023-06-09T22:58:22.236Z,20.36
2023-06-09T23:00:48.887Z,20.48
2023-06-09T23:03:17.812Z,20.49
2023-06-09T23:05:46.631Z,20.47
2023-06-09T23:08:13.494Z,20.40
2023-06-09T23:10:40.504Z,20.45
2023-06-09T23:13:07.167Z,20.42
2023-06-09T23:15:33.801Z,20.42
2023-06-09T23:18:00.515Z,20.40
2023-06-09T23:20:29.982Z,20.38
2023-06-09T23:23:00.524Z,20.29
2023-06-09T23:25:27.239Z,20.35
2023-06-09T23:27:56.182Z,20.34
2023-06-09T23:30:25.252Z,20.26
2023-06-09T23:32:51.996Z,20.31
2023-06-09T23:35:18.811Z,20.29
2023-06-09T23:37:46.960Z,20.27
2023-06-09T23:40:14.587Z,20.24
2023-06-09T23:42:41.692Z,20.11
2023-06-09T23:45:09.601Z,20.19
2023-06-09T23:47:36.996Z,20.16
2023-06-09T23:50:04.460Z,20.18
2023-06-09T23:52:34.423Z,20.19
2023-06-09T23:55:06.462Z,20.04
2023-06-09T23:57:34.408Z,20.17
